AIC2972 VAPO-VIDP
Flight info
| Callsign | AIC2972 |
|---|---|
| Flight time | 1h 42m |
| Altitude | 35000 |
| Route | DOGAP2A DOGAP W28 BBB Q1 UKASO UKASO6C |
| Aircraft | A321/M-SDE3FGHIRWY/LB1 |
Departure
| Time | 2026-04-12 03:27 |
|---|---|
| Airport | Pune International Airport (VAPO) |
Arrival
| Time | 2026-04-12 05:09 |
|---|---|
| Airport | Indira Gandhi International Airport (VIDP) |
| Time | Latitude | Longitude | Altitude | Speed | Heading |
|---|---|---|---|---|---|
| 2026-04-12 03:15 | 18.58005 | 73.90839 | 1920 ft | 0 kts | 189° |
| 2026-04-12 03:18 | 18.58021 | 73.90842 | 1920 ft | 2 kts | 189° |
| 2026-04-12 03:19 | 18.58037 | 73.90845 | 1920 ft | 2 kts | 189° |
| 2026-04-12 03:19 | 18.58053 | 73.90848 | 1918 ft | 2 kts | 173° |
| 2026-04-12 03:19 | 18.58067 | 73.90840 | 1916 ft | 2 kts | 98° |
| 2026-04-12 03:19 | 18.58068 | 73.90837 | 1916 ft | 0 kts | 98° |
| 2026-04-12 03:20 | 18.58066 | 73.90847 | 1917 ft | 3 kts | 99° |
| 2026-04-12 03:20 | 18.58061 | 73.90885 | 1919 ft | 7 kts | 92° |
| 2026-04-12 03:20 | 18.58096 | 73.90920 | 1918 ft | 9 kts | 28° |
| 2026-04-12 03:20 | 18.58127 | 73.90985 | 1918 ft | 13 kts | 92° |
| 2026-04-12 03:21 | 18.58122 | 73.91099 | 1918 ft | 19 kts | 94° |
| 2026-04-12 03:21 | 18.58110 | 73.91255 | 1918 ft | 23 kts | 94° |
| 2026-04-12 03:21 | 18.58098 | 73.91436 | 1918 ft | 26 kts | 95° |
| 2026-04-12 03:21 | 18.58085 | 73.91618 | 1918 ft | 24 kts | 93° |
| 2026-04-12 03:22 | 18.58075 | 73.91793 | 1918 ft | 23 kts | 93° |
| 2026-04-12 03:22 | 18.58066 | 73.91959 | 1918 ft | 22 kts | 93° |
| 2026-04-12 03:22 | 18.58057 | 73.92117 | 1918 ft | 21 kts | 93° |
| 2026-04-12 03:22 | 18.58049 | 73.92266 | 1919 ft | 20 kts | 93° |
| 2026-04-12 03:23 | 18.58041 | 73.92405 | 1919 ft | 18 kts | 93° |
| 2026-04-12 03:23 | 18.58034 | 73.92517 | 1919 ft | 14 kts | 93° |
| 2026-04-12 03:23 | 18.58029 | 73.92616 | 1918 ft | 13 kts | 93° |
| 2026-04-12 03:23 | 18.58023 | 73.92704 | 1918 ft | 12 kts | 97° |
| 2026-04-12 03:24 | 18.58015 | 73.92784 | 1918 ft | 10 kts | 94° |
| 2026-04-12 03:24 | 18.58011 | 73.92856 | 1918 ft | 11 kts | 92° |
| 2026-04-12 03:24 | 18.58004 | 73.92972 | 1919 ft | 17 kts | 92° |
| 2026-04-12 03:24 | 18.58048 | 73.93004 | 1919 ft | 7 kts | 359° |
| 2026-04-12 03:25 | 18.58092 | 73.93006 | 1919 ft | 6 kts | 3° |
| 2026-04-12 03:25 | 18.58128 | 73.93008 | 1919 ft | 5 kts | 3° |
| 2026-04-12 03:25 | 18.58166 | 73.92984 | 1919 ft | 7 kts | 295° |
| 2026-04-12 03:25 | 18.58168 | 73.92970 | 1919 ft | 2 kts | 275° |
| 2026-04-12 03:26 | 18.58182 | 73.92769 | 1919 ft | 65 kts | 274° |
| 2026-04-12 03:26 | 18.58225 | 73.92045 | 1919 ft | 130 kts | 273° |
| 2026-04-12 03:26 | 18.58299 | 73.90910 | 1929 ft | 177 kts | 274° |
| 2026-04-12 03:26 | 18.58372 | 73.89524 | 2420 ft | 194 kts | 271° |
| 2026-04-12 03:27 | 18.58412 | 73.88092 | 3205 ft | 197 kts | 274° |
| 2026-04-12 03:27 | 18.58498 | 73.86624 | 3900 ft | 205 kts | 275° |
| 2026-04-12 03:27 | 18.58612 | 73.85083 | 4071 ft | 220 kts | 276° |
| 2026-04-12 03:27 | 18.58742 | 73.83419 | 4193 ft | 236 kts | 276° |
| 2026-04-12 03:28 | 18.58989 | 73.81630 | 4293 ft | 259 kts | 292° |
| 2026-04-12 03:28 | 18.60078 | 73.80084 | 4612 ft | 271 kts | 321° |
| 2026-04-12 03:28 | 18.61625 | 73.78927 | 5144 ft | 275 kts | 329° |
| 2026-04-12 03:28 | 18.63298 | 73.77917 | 5730 ft | 278 kts | 329° |
| 2026-04-12 03:29 | 18.64763 | 73.76587 | 6286 ft | 282 kts | 306° |
| 2026-04-12 03:29 | 18.65811 | 73.74826 | 6846 ft | 285 kts | 299° |
| 2026-04-12 03:29 | 18.66771 | 73.72991 | 7438 ft | 286 kts | 298° |
| 2026-04-12 03:29 | 18.67692 | 73.71126 | 8036 ft | 288 kts | 296° |
| 2026-04-12 03:30 | 18.68562 | 73.69216 | 8656 ft | 290 kts | 295° |
| 2026-04-12 03:30 | 18.69412 | 73.67287 | 9259 ft | 291 kts | 294° |
| 2026-04-12 03:30 | 18.70254 | 73.65369 | 9861 ft | 293 kts | 294° |
| 2026-04-12 03:30 | 18.71118 | 73.63410 | 10388 ft | 297 kts | 295° |
| 2026-04-12 03:31 | 18.72022 | 73.61378 | 10525 ft | 315 kts | 295° |
| 2026-04-12 03:31 | 18.72983 | 73.59230 | 10661 ft | 332 kts | 295° |
| 2026-04-12 03:31 | 18.73999 | 73.56975 | 10797 ft | 347 kts | 295° |
| 2026-04-12 03:31 | 18.75049 | 73.54653 | 11190 ft | 353 kts | 296° |
| 2026-04-12 03:32 | 18.76111 | 73.52308 | 11673 ft | 356 kts | 296° |
| 2026-04-12 03:32 | 18.77184 | 73.49941 | 12160 ft | 359 kts | 296° |
| 2026-04-12 03:32 | 18.78262 | 73.47561 | 12663 ft | 361 kts | 296° |
| 2026-04-12 03:32 | 18.79467 | 73.45220 | 13113 ft | 364 kts | 305° |
| 2026-04-12 03:33 | 18.81125 | 73.43200 | 13590 ft | 366 kts | 318° |
| 2026-04-12 03:33 | 18.83182 | 73.41622 | 14038 ft | 368 kts | 331° |
| 2026-04-12 03:33 | 18.85549 | 73.40571 | 14462 ft | 370 kts | 344° |
| 2026-04-12 03:33 | 18.88063 | 73.39950 | 14888 ft | 372 kts | 347° |
| 2026-04-12 03:34 | 18.90598 | 73.39351 | 15303 ft | 374 kts | 347° |
| 2026-04-12 03:34 | 18.93148 | 73.38745 | 15722 ft | 377 kts | 347° |
| 2026-04-12 03:34 | 18.95712 | 73.38134 | 16121 ft | 379 kts | 346° |
| 2026-04-12 03:34 | 18.98288 | 73.37520 | 16520 ft | 381 kts | 346° |
| 2026-04-12 03:35 | 19.00882 | 73.36901 | 16911 ft | 383 kts | 346° |
| 2026-04-12 03:35 | 19.03491 | 73.36278 | 17303 ft | 385 kts | 346° |
| 2026-04-12 03:35 | 19.06112 | 73.35652 | 17692 ft | 387 kts | 346° |
| 2026-04-12 03:35 | 19.08746 | 73.35023 | 18070 ft | 389 kts | 346° |
| 2026-04-12 03:36 | 19.11397 | 73.34391 | 18399 ft | 391 kts | 346° |
| 2026-04-12 03:36 | 19.14058 | 73.33755 | 18697 ft | 393 kts | 346° |
| 2026-04-12 03:36 | 19.16735 | 73.33114 | 18998 ft | 395 kts | 346° |
| 2026-04-12 03:36 | 19.19423 | 73.32467 | 19282 ft | 397 kts | 346° |
| 2026-04-12 03:37 | 19.22120 | 73.31818 | 19562 ft | 399 kts | 346° |
| 2026-04-12 03:37 | 19.24836 | 73.31165 | 19830 ft | 401 kts | 346° |
| 2026-04-12 03:37 | 19.27559 | 73.30513 | 20108 ft | 403 kts | 346° |
| 2026-04-12 03:37 | 19.30302 | 73.29860 | 20382 ft | 405 kts | 346° |
| 2026-04-12 03:38 | 19.33057 | 73.29203 | 20651 ft | 406 kts | 346° |
| 2026-04-12 03:38 | 19.35819 | 73.28541 | 20922 ft | 408 kts | 345° |
| 2026-04-12 03:38 | 19.38558 | 73.27880 | 21183 ft | 410 kts | 345° |
| 2026-04-12 03:38 | 19.41348 | 73.27209 | 21465 ft | 412 kts | 345° |
| 2026-04-12 03:39 | 19.44154 | 73.26535 | 21739 ft | 414 kts | 345° |
| 2026-04-12 03:39 | 19.46966 | 73.25860 | 22017 ft | 416 kts | 345° |
| 2026-04-12 03:39 | 19.49799 | 73.25178 | 22298 ft | 418 kts | 345° |
| 2026-04-12 03:39 | 19.52639 | 73.24496 | 22593 ft | 420 kts | 345° |
| 2026-04-12 03:40 | 19.55495 | 73.23809 | 22881 ft | 422 kts | 345° |
| 2026-04-12 03:40 | 19.58362 | 73.23120 | 23168 ft | 424 kts | 345° |
| 2026-04-12 03:40 | 19.61246 | 73.22424 | 23452 ft | 426 kts | 345° |
| 2026-04-12 03:40 | 19.63165 | 73.21960 | 23611 ft | 428 kts | 345° |
| 2026-04-12 03:41 | 19.66072 | 73.21259 | 23855 ft | 429 kts | 345° |
| 2026-04-12 03:41 | 19.68990 | 73.20559 | 24108 ft | 431 kts | 345° |
| 2026-04-12 03:41 | 19.71924 | 73.19853 | 24369 ft | 433 kts | 345° |
| 2026-04-12 03:41 | 19.74862 | 73.19144 | 24614 ft | 434 kts | 345° |
| 2026-04-12 03:42 | 19.77812 | 73.18431 | 24862 ft | 436 kts | 345° |
| 2026-04-12 03:42 | 19.80774 | 73.17719 | 25105 ft | 437 kts | 345° |
| 2026-04-12 03:42 | 19.83753 | 73.17004 | 25349 ft | 439 kts | 345° |
| 2026-04-12 03:42 | 19.86733 | 73.16284 | 25593 ft | 441 kts | 344° |
| 2026-04-12 03:43 | 19.89728 | 73.15558 | 25824 ft | 442 kts | 344° |
| 2026-04-12 03:43 | 19.92735 | 73.14827 | 26061 ft | 444 kts | 344° |
| 2026-04-12 03:43 | 19.95755 | 73.14095 | 26301 ft | 446 kts | 344° |
| 2026-04-12 03:43 | 19.98786 | 73.13361 | 26526 ft | 448 kts | 344° |
| 2026-04-12 03:44 | 20.01831 | 73.12628 | 26762 ft | 449 kts | 344° |
| 2026-04-12 03:44 | 20.04887 | 73.11894 | 26990 ft | 451 kts | 344° |
| 2026-04-12 03:44 | 20.07953 | 73.11157 | 27217 ft | 453 kts | 344° |
| 2026-04-12 03:44 | 20.11033 | 73.10412 | 27432 ft | 455 kts | 344° |
| 2026-04-12 03:45 | 20.14126 | 73.09660 | 27658 ft | 457 kts | 344° |
| 2026-04-12 03:45 | 20.17229 | 73.08905 | 27884 ft | 458 kts | 344° |
| 2026-04-12 03:45 | 20.20339 | 73.08148 | 28098 ft | 460 kts | 343° |
| 2026-04-12 03:45 | 20.23467 | 73.07388 | 28316 ft | 462 kts | 343° |
| 2026-04-12 03:46 | 20.26606 | 73.06626 | 28517 ft | 463 kts | 343° |
| 2026-04-12 03:46 | 20.29757 | 73.05861 | 28721 ft | 465 kts | 343° |
| 2026-04-12 03:46 | 20.32915 | 73.05094 | 28903 ft | 467 kts | 343° |
| 2026-04-12 03:46 | 20.36084 | 73.04322 | 29090 ft | 468 kts | 343° |
| 2026-04-12 03:47 | 20.39265 | 73.03547 | 29255 ft | 470 kts | 343° |
| 2026-04-12 03:47 | 20.42458 | 73.02770 | 29421 ft | 471 kts | 343° |
| 2026-04-12 03:47 | 20.45658 | 73.01991 | 29574 ft | 472 kts | 343° |
| 2026-04-12 03:47 | 20.48868 | 73.01210 | 29722 ft | 474 kts | 343° |
| 2026-04-12 03:48 | 20.52082 | 73.00428 | 29862 ft | 475 kts | 343° |
| 2026-04-12 03:48 | 20.55304 | 72.99643 | 30052 ft | 475 kts | 343° |
| 2026-04-12 03:48 | 20.58521 | 72.98859 | 30233 ft | 474 kts | 343° |
| 2026-04-12 03:48 | 20.61732 | 72.98074 | 30419 ft | 473 kts | 343° |
| 2026-04-12 03:49 | 20.64943 | 72.97290 | 30598 ft | 473 kts | 343° |
| 2026-04-12 03:49 | 20.68148 | 72.96511 | 30809 ft | 472 kts | 343° |
| 2026-04-12 03:49 | 20.71346 | 72.95733 | 31003 ft | 471 kts | 343° |
| 2026-04-12 03:49 | 20.74506 | 72.95005 | 31194 ft | 472 kts | 347° |
| 2026-04-12 03:50 | 20.77792 | 72.94717 | 31385 ft | 477 kts | 356° |
| 2026-04-12 03:50 | 20.81118 | 72.94827 | 31575 ft | 478 kts | 358° |
| 2026-04-12 03:50 | 20.84444 | 72.94950 | 31778 ft | 477 kts | 358° |
| 2026-04-12 03:50 | 20.87759 | 72.95074 | 31982 ft | 477 kts | 358° |
| 2026-04-12 03:51 | 20.91068 | 72.95200 | 32195 ft | 476 kts | 358° |
| 2026-04-12 03:51 | 20.94384 | 72.95322 | 32400 ft | 476 kts | 358° |
| 2026-04-12 03:51 | 20.97688 | 72.95442 | 32607 ft | 475 kts | 357° |
| 2026-04-12 03:51 | 21.00990 | 72.95561 | 32842 ft | 474 kts | 357° |
| 2026-04-12 03:52 | 21.04284 | 72.95679 | 33052 ft | 474 kts | 357° |
| 2026-04-12 03:52 | 21.07572 | 72.95797 | 33271 ft | 473 kts | 357° |
| 2026-04-12 03:52 | 21.10857 | 72.95918 | 33479 ft | 472 kts | 357° |
| 2026-04-12 03:52 | 21.14142 | 72.96040 | 33686 ft | 472 kts | 357° |
| 2026-04-12 03:53 | 21.17420 | 72.96298 | 33896 ft | 475 kts | 4° |
| 2026-04-12 03:53 | 21.20660 | 72.97072 | 34075 ft | 480 kts | 13° |
| 2026-04-12 03:53 | 21.23813 | 72.98259 | 34244 ft | 481 kts | 16° |
| 2026-04-12 03:53 | 21.26960 | 72.99475 | 34418 ft | 480 kts | 15° |
| 2026-04-12 03:54 | 21.30101 | 73.00691 | 34604 ft | 479 kts | 15° |
| 2026-04-12 03:54 | 21.33230 | 73.01900 | 34794 ft | 479 kts | 15° |
| 2026-04-12 03:54 | 21.39431 | 73.04303 | 34901 ft | 474 kts | 15° |
| 2026-04-12 03:55 | 21.45612 | 73.06695 | 34897 ft | 471 kts | 15° |
| 2026-04-12 03:55 | 21.51777 | 73.09065 | 34898 ft | 471 kts | 15° |
| 2026-04-12 03:56 | 21.57952 | 73.11446 | 34901 ft | 471 kts | 15° |
| 2026-04-12 03:56 | 21.64121 | 73.13833 | 34904 ft | 471 kts | 15° |
| 2026-04-12 03:57 | 21.70286 | 73.16228 | 34903 ft | 471 kts | 15° |
| 2026-04-12 03:57 | 21.76451 | 73.18623 | 34913 ft | 471 kts | 15° |
| 2026-04-12 03:58 | 21.82619 | 73.21014 | 34916 ft | 471 kts | 15° |
| 2026-04-12 03:58 | 21.88787 | 73.23412 | 34918 ft | 471 kts | 15° |
| 2026-04-12 03:59 | 21.94958 | 73.25813 | 34920 ft | 471 kts | 15° |
| 2026-04-12 03:59 | 22.01120 | 73.28209 | 34912 ft | 471 kts | 15° |
| 2026-04-12 04:00 | 22.07281 | 73.30612 | 34918 ft | 471 kts | 15° |
| 2026-04-12 04:00 | 22.13445 | 73.33021 | 34911 ft | 471 kts | 15° |
| 2026-04-12 04:01 | 22.19607 | 73.35429 | 34909 ft | 471 kts | 15° |
| 2026-04-12 04:01 | 22.25768 | 73.37834 | 34912 ft | 471 kts | 15° |
| 2026-04-12 04:02 | 22.35009 | 73.41447 | 34916 ft | 471 kts | 15° |
| 2026-04-12 04:03 | 22.41162 | 73.43862 | 34916 ft | 471 kts | 15° |
| 2026-04-12 04:03 | 22.47322 | 73.46276 | 34914 ft | 471 kts | 15° |
| 2026-04-12 04:04 | 22.53444 | 73.48676 | 34920 ft | 471 kts | 15° |
| 2026-04-12 04:04 | 22.59605 | 73.51098 | 34926 ft | 471 kts | 15° |
| 2026-04-12 04:05 | 22.65770 | 73.53524 | 34925 ft | 472 kts | 15° |
| 2026-04-12 04:05 | 22.71936 | 73.55959 | 34928 ft | 472 kts | 15° |
| 2026-04-12 04:06 | 22.78105 | 73.58395 | 34925 ft | 472 kts | 15° |
| 2026-04-12 04:06 | 22.84284 | 73.60829 | 34925 ft | 472 kts | 14° |
| 2026-04-12 04:07 | 22.90465 | 73.63261 | 34926 ft | 473 kts | 14° |
| 2026-04-12 04:07 | 22.96648 | 73.65698 | 34930 ft | 473 kts | 14° |
| 2026-04-12 04:08 | 23.02841 | 73.68149 | 34928 ft | 474 kts | 14° |
| 2026-04-12 04:08 | 23.09031 | 73.70604 | 34927 ft | 474 kts | 14° |
| 2026-04-12 04:09 | 23.15236 | 73.73065 | 34937 ft | 475 kts | 14° |
| 2026-04-12 04:09 | 23.21444 | 73.75527 | 34934 ft | 475 kts | 14° |
| 2026-04-12 04:10 | 23.27649 | 73.77987 | 34933 ft | 475 kts | 14° |
| 2026-04-12 04:10 | 23.33871 | 73.80464 | 34932 ft | 476 kts | 14° |
| 2026-04-12 04:11 | 23.40085 | 73.82938 | 34938 ft | 476 kts | 14° |
| 2026-04-12 04:11 | 23.46305 | 73.85417 | 34945 ft | 476 kts | 14° |
| 2026-04-12 04:12 | 23.52524 | 73.87893 | 34946 ft | 476 kts | 14° |
| 2026-04-12 04:12 | 23.58749 | 73.90366 | 34955 ft | 476 kts | 14° |
| 2026-04-12 04:13 | 23.64932 | 73.92837 | 34960 ft | 477 kts | 14° |
| 2026-04-12 04:13 | 23.71153 | 73.95334 | 34963 ft | 476 kts | 14° |
| 2026-04-12 04:14 | 23.77380 | 73.97828 | 34965 ft | 476 kts | 14° |
| 2026-04-12 04:14 | 23.83599 | 74.00320 | 34953 ft | 476 kts | 14° |
| 2026-04-12 04:15 | 23.89824 | 74.02810 | 34966 ft | 476 kts | 14° |
| 2026-04-12 04:15 | 23.96046 | 74.05308 | 34964 ft | 476 kts | 14° |
| 2026-04-12 04:16 | 24.02264 | 74.07818 | 34972 ft | 476 kts | 13° |
| 2026-04-12 04:16 | 24.08483 | 74.10317 | 34971 ft | 476 kts | 13° |
| 2026-04-12 04:17 | 24.14704 | 74.12810 | 34977 ft | 476 kts | 13° |
| 2026-04-12 04:17 | 24.20930 | 74.15308 | 34999 ft | 476 kts | 13° |
| 2026-04-12 04:18 | 24.27148 | 74.17810 | 35001 ft | 476 kts | 13° |
| 2026-04-12 04:18 | 24.33367 | 74.20324 | 35003 ft | 476 kts | 13° |
| 2026-04-12 04:19 | 24.39590 | 74.22843 | 35005 ft | 476 kts | 13° |
| 2026-04-12 04:19 | 24.45807 | 74.25359 | 35004 ft | 476 kts | 13° |
| 2026-04-12 04:20 | 24.52028 | 74.27874 | 35005 ft | 476 kts | 13° |
| 2026-04-12 04:20 | 24.58244 | 74.30396 | 35007 ft | 476 kts | 13° |
| 2026-04-12 04:21 | 24.64462 | 74.32921 | 35008 ft | 476 kts | 13° |
| 2026-04-12 04:21 | 24.70643 | 74.35435 | 35010 ft | 476 kts | 13° |
| 2026-04-12 04:22 | 24.76856 | 74.37972 | 35009 ft | 476 kts | 13° |
| 2026-04-12 04:22 | 24.83072 | 74.40506 | 35007 ft | 476 kts | 12° |
| 2026-04-12 04:23 | 24.89286 | 74.43037 | 35006 ft | 476 kts | 12° |
| 2026-04-12 04:23 | 24.95506 | 74.45573 | 35006 ft | 476 kts | 12° |
| 2026-04-12 04:24 | 25.01717 | 74.48109 | 35005 ft | 476 kts | 12° |
| 2026-04-12 04:24 | 25.07932 | 74.50651 | 35008 ft | 476 kts | 12° |
| 2026-04-12 04:25 | 25.14151 | 74.53202 | 35012 ft | 476 kts | 12° |
| 2026-04-12 04:25 | 25.20357 | 74.55751 | 35007 ft | 476 kts | 12° |
| 2026-04-12 04:26 | 25.26569 | 74.58308 | 35005 ft | 476 kts | 12° |
| 2026-04-12 04:26 | 25.32774 | 74.60870 | 35006 ft | 476 kts | 12° |
| 2026-04-12 04:27 | 25.38984 | 74.63434 | 35002 ft | 476 kts | 12° |
| 2026-04-12 04:27 | 25.45190 | 74.66001 | 34999 ft | 476 kts | 12° |
| 2026-04-12 04:28 | 25.51393 | 74.68563 | 34998 ft | 476 kts | 12° |
| 2026-04-12 04:28 | 25.57600 | 74.71131 | 35000 ft | 476 kts | 12° |
| 2026-04-12 04:29 | 25.62753 | 74.73276 | 34995 ft | 476 kts | 12° |
| 2026-04-12 04:29 | 25.68956 | 74.75854 | 34996 ft | 476 kts | 12° |
| 2026-04-12 04:30 | 25.76160 | 74.78843 | 34997 ft | 476 kts | 11° |
| 2026-04-12 04:30 | 25.82365 | 74.81420 | 34994 ft | 476 kts | 11° |
| 2026-04-12 04:31 | 25.87555 | 74.83586 | 34991 ft | 476 kts | 11° |
| 2026-04-12 04:31 | 25.93716 | 74.86147 | 34997 ft | 476 kts | 11° |
| 2026-04-12 04:32 | 25.99911 | 74.88729 | 34990 ft | 476 kts | 11° |
| 2026-04-12 04:32 | 26.06112 | 74.91329 | 34987 ft | 476 kts | 11° |
| 2026-04-12 04:33 | 26.12304 | 74.93922 | 34992 ft | 476 kts | 11° |
| 2026-04-12 04:33 | 26.18500 | 74.96515 | 34988 ft | 476 kts | 11° |
| 2026-04-12 04:34 | 26.24693 | 74.99108 | 34989 ft | 476 kts | 11° |
| 2026-04-12 04:34 | 26.30896 | 75.01698 | 34984 ft | 476 kts | 11° |
| 2026-04-12 04:35 | 26.37097 | 75.04288 | 34987 ft | 476 kts | 11° |
| 2026-04-12 04:35 | 26.43298 | 75.06884 | 34978 ft | 476 kts | 11° |
| 2026-04-12 04:36 | 26.49497 | 75.09477 | 34984 ft | 476 kts | 11° |
| 2026-04-12 04:36 | 26.55704 | 75.12081 | 34977 ft | 476 kts | 11° |
| 2026-04-12 04:37 | 26.61909 | 75.14687 | 34979 ft | 477 kts | 10° |
| 2026-04-12 04:37 | 26.68115 | 75.17293 | 34972 ft | 477 kts | 10° |
| 2026-04-12 04:38 | 26.74327 | 75.19898 | 34976 ft | 477 kts | 10° |
| 2026-04-12 04:38 | 26.80544 | 75.22509 | 34974 ft | 477 kts | 10° |
| 2026-04-12 04:39 | 26.86712 | 75.25103 | 34974 ft | 477 kts | 10° |
| 2026-04-12 04:39 | 26.92929 | 75.27718 | 34969 ft | 477 kts | 10° |
| 2026-04-12 04:40 | 26.99152 | 75.30341 | 34967 ft | 478 kts | 10° |
| 2026-04-12 04:40 | 27.05376 | 75.32971 | 34972 ft | 478 kts | 10° |
| 2026-04-12 04:41 | 27.11599 | 75.35609 | 34971 ft | 478 kts | 10° |
| 2026-04-12 04:41 | 27.17827 | 75.38257 | 34973 ft | 480 kts | 11° |
| 2026-04-12 04:41 | 27.20858 | 75.39923 | 34975 ft | 493 kts | 21° |
| 2026-04-12 04:42 | 27.23703 | 75.42168 | 34978 ft | 506 kts | 31° |
| 2026-04-12 04:42 | 27.28824 | 75.47736 | 34971 ft | 513 kts | 36° |
| 2026-04-12 04:43 | 27.36424 | 75.56147 | 34957 ft | 508 kts | 34° |
| 2026-04-12 04:43 | 27.41475 | 75.61703 | 34960 ft | 508 kts | 34° |
| 2026-04-12 04:44 | 27.46522 | 75.67272 | 34966 ft | 508 kts | 34° |
| 2026-04-12 04:44 | 27.51562 | 75.72852 | 34834 ft | 509 kts | 34° |
| 2026-04-12 04:45 | 27.54078 | 75.75648 | 34621 ft | 508 kts | 34° |
| 2026-04-12 04:45 | 27.56594 | 75.78451 | 33965 ft | 511 kts | 34° |
| 2026-04-12 04:45 | 27.59124 | 75.81257 | 32863 ft | 518 kts | 35° |
| 2026-04-12 04:45 | 27.61662 | 75.84087 | 32427 ft | 509 kts | 35° |
| 2026-04-12 04:46 | 27.64209 | 75.86914 | 31733 ft | 503 kts | 34° |
| 2026-04-12 04:46 | 27.66710 | 75.89532 | 31204 ft | 491 kts | 32° |
| 2026-04-12 04:46 | 27.69261 | 75.92036 | 30631 ft | 482 kts | 30° |
| 2026-04-12 04:46 | 27.71814 | 75.94435 | 30085 ft | 473 kts | 30° |
| 2026-04-12 04:47 | 27.74341 | 75.96771 | 29483 ft | 466 kts | 30° |
| 2026-04-12 04:47 | 27.76818 | 75.99072 | 28967 ft | 457 kts | 30° |
| 2026-04-12 04:47 | 27.79232 | 76.01353 | 28448 ft | 448 kts | 31° |
| 2026-04-12 04:47 | 27.81586 | 76.03614 | 27940 ft | 440 kts | 31° |
| 2026-04-12 04:48 | 27.83887 | 76.05846 | 27442 ft | 432 kts | 32° |
| 2026-04-12 04:48 | 27.86137 | 76.08041 | 26954 ft | 423 kts | 32° |
| 2026-04-12 04:48 | 27.88338 | 76.10187 | 26479 ft | 414 kts | 32° |
| 2026-04-12 04:48 | 27.90518 | 76.12305 | 26021 ft | 412 kts | 32° |
| 2026-04-12 04:49 | 27.92689 | 76.14407 | 25541 ft | 409 kts | 32° |
| 2026-04-12 04:49 | 27.94841 | 76.16491 | 25114 ft | 407 kts | 32° |
| 2026-04-12 04:49 | 27.96982 | 76.18566 | 24675 ft | 404 kts | 33° |
| 2026-04-12 04:49 | 27.99105 | 76.20627 | 24241 ft | 401 kts | 33° |
| 2026-04-12 04:50 | 28.01217 | 76.22680 | 23827 ft | 399 kts | 33° |
| 2026-04-12 04:50 | 28.03311 | 76.24718 | 23381 ft | 396 kts | 33° |
| 2026-04-12 04:50 | 28.05393 | 76.26750 | 22948 ft | 394 kts | 33° |
| 2026-04-12 04:50 | 28.07463 | 76.28771 | 22540 ft | 392 kts | 33° |
| 2026-04-12 04:51 | 28.09526 | 76.30783 | 22132 ft | 391 kts | 33° |
| 2026-04-12 04:51 | 28.11585 | 76.32789 | 21729 ft | 389 kts | 33° |
| 2026-04-12 04:51 | 28.13628 | 76.34777 | 21320 ft | 387 kts | 33° |
| 2026-04-12 04:51 | 28.15666 | 76.36761 | 20902 ft | 385 kts | 33° |
| 2026-04-12 04:52 | 28.17688 | 76.38734 | 20483 ft | 383 kts | 33° |
| 2026-04-12 04:52 | 28.19682 | 76.40687 | 20102 ft | 375 kts | 33° |
| 2026-04-12 04:52 | 28.21641 | 76.42612 | 19865 ft | 372 kts | 34° |
| 2026-04-12 04:52 | 28.23420 | 76.44775 | 19631 ft | 380 kts | 47° |
| 2026-04-12 04:53 | 28.24848 | 76.47325 | 19355 ft | 384 kts | 54° |
| 2026-04-12 04:53 | 28.26192 | 76.49940 | 18825 ft | 384 kts | 54° |
| 2026-04-12 04:53 | 28.28877 | 76.55162 | 17734 ft | 380 kts | 54° |
| 2026-04-12 04:54 | 28.30196 | 76.57731 | 17275 ft | 374 kts | 54° |
| 2026-04-12 04:54 | 28.31501 | 76.60272 | 16771 ft | 371 kts | 54° |
| 2026-04-12 04:54 | 28.32787 | 76.62776 | 16397 ft | 363 kts | 54° |
| 2026-04-12 04:54 | 28.34027 | 76.65199 | 16280 ft | 347 kts | 54° |
| 2026-04-12 04:55 | 28.35154 | 76.67584 | 16002 ft | 341 kts | 60° |
| 2026-04-12 04:55 | 28.36143 | 76.70004 | 15612 ft | 336 kts | 60° |
| 2026-04-12 04:55 | 28.37126 | 76.72404 | 15200 ft | 333 kts | 60° |
| 2026-04-12 04:55 | 28.38096 | 76.74773 | 14802 ft | 329 kts | 60° |
| 2026-04-12 04:56 | 28.39043 | 76.77091 | 14423 ft | 326 kts | 60° |
| 2026-04-12 04:56 | 28.39988 | 76.79413 | 14045 ft | 322 kts | 60° |
| 2026-04-12 04:56 | 28.40924 | 76.81711 | 13669 ft | 318 kts | 60° |
| 2026-04-12 04:56 | 28.41844 | 76.83967 | 13263 ft | 315 kts | 60° |
| 2026-04-12 04:57 | 28.42761 | 76.86225 | 12832 ft | 312 kts | 61° |
| 2026-04-12 04:57 | 28.43662 | 76.88446 | 12451 ft | 307 kts | 61° |
| 2026-04-12 04:57 | 28.44554 | 76.90642 | 12002 ft | 306 kts | 61° |
| 2026-04-12 04:57 | 28.45436 | 76.92817 | 11637 ft | 301 kts | 62° |
| 2026-04-12 04:58 | 28.46238 | 76.95015 | 11204 ft | 301 kts | 71° |
| 2026-04-12 04:58 | 28.46562 | 76.97354 | 10832 ft | 300 kts | 87° |
| 2026-04-12 04:58 | 28.46339 | 76.99708 | 10397 ft | 299 kts | 103° |
| 2026-04-12 04:58 | 28.45835 | 77.01981 | 10007 ft | 296 kts | 103° |
| 2026-04-12 04:59 | 28.45342 | 77.04240 | 9578 ft | 294 kts | 103° |
| 2026-04-12 04:59 | 28.44859 | 77.06484 | 9237 ft | 288 kts | 103° |
| 2026-04-12 04:59 | 28.44395 | 77.08642 | 9020 ft | 277 kts | 103° |
| 2026-04-12 04:59 | 28.43942 | 77.10764 | 8584 ft | 276 kts | 103° |
| 2026-04-12 05:00 | 28.43492 | 77.12871 | 8197 ft | 274 kts | 103° |
| 2026-04-12 05:00 | 28.43043 | 77.14961 | 7806 ft | 271 kts | 103° |
| 2026-04-12 05:00 | 28.42598 | 77.17034 | 7418 ft | 269 kts | 103° |
| 2026-04-12 05:00 | 28.42155 | 77.19093 | 7040 ft | 268 kts | 103° |
| 2026-04-12 05:01 | 28.41723 | 77.21167 | 6436 ft | 276 kts | 102° |
| 2026-04-12 05:01 | 28.41282 | 77.23318 | 5949 ft | 277 kts | 102° |
| 2026-04-12 05:01 | 28.40837 | 77.25368 | 5822 ft | 264 kts | 103° |
| 2026-04-12 05:01 | 28.40408 | 77.27383 | 5720 ft | 256 kts | 102° |
| 2026-04-12 05:02 | 28.40003 | 77.29316 | 5617 ft | 254 kts | 99° |
| 2026-04-12 05:02 | 28.40020 | 77.31290 | 5525 ft | 245 kts | 73° |
| 2026-04-12 05:02 | 28.40691 | 77.32950 | 5423 ft | 224 kts | 49° |
| 2026-04-12 05:02 | 28.41802 | 77.34114 | 5176 ft | 214 kts | 26° |
| 2026-04-12 05:03 | 28.43168 | 77.34704 | 4931 ft | 208 kts | 6° |
| 2026-04-12 05:03 | 28.44588 | 77.34699 | 4691 ft | 202 kts | 346° |
| 2026-04-12 05:03 | 28.45884 | 77.34140 | 4442 ft | 200 kts | 327° |
| 2026-04-12 05:03 | 28.46948 | 77.33133 | 4205 ft | 200 kts | 315° |
| 2026-04-12 05:04 | 28.47944 | 77.32046 | 3951 ft | 198 kts | 316° |
| 2026-04-12 05:04 | 28.48943 | 77.30965 | 3711 ft | 197 kts | 313° |
| 2026-04-12 05:04 | 28.49693 | 77.29663 | 3482 ft | 198 kts | 292° |
| 2026-04-12 05:04 | 28.50059 | 77.28157 | 3424 ft | 199 kts | 286° |
| 2026-04-12 05:05 | 28.50387 | 77.26645 | 3345 ft | 191 kts | 286° |
| 2026-04-12 05:05 | 28.50693 | 77.25227 | 3293 ft | 179 kts | 286° |
| 2026-04-12 05:05 | 28.50984 | 77.23883 | 3186 ft | 172 kts | 286° |
| 2026-04-12 05:05 | 28.51261 | 77.22603 | 3013 ft | 163 kts | 285° |
| 2026-04-12 05:06 | 28.51524 | 77.21383 | 2801 ft | 155 kts | 285° |
| 2026-04-12 05:06 | 28.51782 | 77.20194 | 2616 ft | 156 kts | 286° |
| 2026-04-12 05:06 | 28.52038 | 77.19004 | 2419 ft | 155 kts | 286° |
| 2026-04-12 05:06 | 28.52295 | 77.17813 | 2216 ft | 153 kts | 287° |
| 2026-04-12 05:07 | 28.52545 | 77.16650 | 2021 ft | 152 kts | 285° |
| 2026-04-12 05:07 | 28.52798 | 77.15479 | 1835 ft | 152 kts | 286° |
| 2026-04-12 05:07 | 28.53049 | 77.14313 | 1639 ft | 151 kts | 285° |
| 2026-04-12 05:07 | 28.53298 | 77.13156 | 1442 ft | 151 kts | 284° |
| 2026-04-12 05:08 | 28.53551 | 77.11994 | 1220 ft | 152 kts | 283° |
| 2026-04-12 05:08 | 28.53798 | 77.10831 | 925 ft | 149 kts | 282° |
| 2026-04-12 05:08 | 28.54054 | 77.09689 | 828 ft | 150 kts | 283° |
| 2026-04-12 05:08 | 28.54293 | 77.08563 | 764 ft | 137 kts | 284° |
| 2026-04-12 05:09 | 28.54496 | 77.07585 | 748 ft | 110 kts | 284° |
| 2026-04-12 05:09 | 28.54642 | 77.07189 | 751 ft | 37 kts | 323° |
| 2026-04-12 05:09 | 28.54813 | 77.07142 | 750 ft | 19 kts | 15° |
| 2026-04-12 05:09 | 28.54936 | 77.07182 | 751 ft | 18 kts | 28° |
| 2026-04-12 05:10 | 28.55055 | 77.07222 | 750 ft | 19 kts | 11° |
| 2026-04-12 05:10 | 28.55178 | 77.07258 | 747 ft | 12 kts | 13° |
| 2026-04-12 05:10 | 28.55227 | 77.07315 | 750 ft | 10 kts | 80° |
| 2026-04-12 05:10 | 28.55216 | 77.07387 | 748 ft | 9 kts | 104° |
| 2026-04-12 05:11 | 28.55202 | 77.07447 | 751 ft | 7 kts | 104° |
| 2026-04-12 05:11 | 28.55190 | 77.07501 | 750 ft | 6 kts | 104° |
| 2026-04-12 05:11 | 28.55174 | 77.07567 | 751 ft | 17 kts | 106° |
| 2026-04-12 05:11 | 28.55122 | 77.07792 | 751 ft | 30 kts | 101° |
| 2026-04-12 05:12 | 28.55078 | 77.07989 | 751 ft | 22 kts | 105° |
| 2026-04-12 05:12 | 28.55038 | 77.08152 | 750 ft | 21 kts | 105° |
| 2026-04-12 05:12 | 28.55082 | 77.08238 | 750 ft | 6 kts | 355° |
| 2026-04-12 05:12 | 28.55093 | 77.08231 | 750 ft | 2 kts | 332° |
| 2026-04-12 05:13 | 28.55107 | 77.08223 | 749 ft | 0 kts | 330° |